This is the latest recevied weather packets stored in our database for station/object PE1RXF-13. If no packets are shown the sender has not sent any weather packets the latest 10 day(s).
| Time | Temp. | Humidity | Pressure | Rain* | Wind** | Luminosity | Snow |
|---|---|---|---|---|---|---|---|
| 1777220055 | 13.89° C | 47% | 1024.9 hPa | 0 mm | - | 79 W/m² | - |
| 1777218255 | 13.89° C | 48% | 1025 hPa | 0 mm | - | 119 W/m² | - |
| 1777214701 | 15° C | 42% | 1025.3 hPa | 0 mm | - | 213 W/m² | - |
| 1777214656 | 15° C | 42% | 1025.3 hPa | 0 mm | - | 213 W/m² | - |
| 1777212855 | 17.22° C | 39% | 1025.4 hPa | 0 mm | - | 228 W/m² | - |
| 1777211055 | 16.67° C | 39% | 1025.4 hPa | 0 mm | - | 268 W/m² | - |
| 1777209256 | 17.22° C | 36% | 1025.5 hPa | 0 mm | - | 299 W/m² | - |
| 1777207455 | 16.67° C | 38% | 1025.6 hPa | 0 mm | - | 338 W/m² | - |
| 1777205655 | 17.22° C | 36% | 1025.8 hPa | 0 mm | - | 360 W/m² | - |
| 1777203854 | 16.67° C | 35% | 1025.9 hPa | 0 mm | - | 356 W/m² | - |
| 1777202054 | 15° C | 41% | 1025.9 hPa | 0 mm | - | 341 W/m² | - |
| 1777200254 | 15° C | 41% | 1026 hPa | 0 mm | - | 386 W/m² | - |
| 1777198454 | 13.89° C | 42% | 1026 hPa | 0 mm | - | 199 W/m² | - |
| 1777196655 | 13.89° C | 44% | 1026.3 hPa | 0 mm | - | 272 W/m² | - |
| 1777194855 | 13.89° C | 45% | 1026.3 hPa | 0 mm | - | 241 W/m² | - |
| 1777193054 | 12.78° C | 50% | 1026.3 hPa | 0 mm | - | 232 W/m² | - |
| 1777191254 | 10° C | 65% | 1026.2 hPa | 0 mm | - | 75 W/m² | - |
| 1777189456 | 9.44° C | 75% | 1026.2 hPa | 0 mm | - | 62 W/m² | - |
| 1777187656 | 10° C | 71% | 1026 hPa | 0 mm | - | 96 W/m² | - |
| 1777184056 | 6.67° C | 99% | 1025.4 hPa | 0 mm | - | 64 W/m² | - |
| 1777182255 | 2.78° C | 99% | 1025.2 hPa | 0 mm | - | 35 W/m² | - |
| 1777180456 | 1.11° C | 99% | 1024.9 hPa | 0 mm | - | 13 W/m² | - |
| 1777176857 | 1.11° C | 99% | 1024.3 hPa | 0 mm | - | 1 W/m² | - |
| 1777173255 | 1.11° C | 99% | 1024 hPa | 0 mm | - | 0 W/m² | - |
| 1777171455 | 1.11° C | 99% | 1023.6 hPa | 0 mm | - | 0 W/m² | - |
* Rain latest hour (hover to see other rain measurements)
** Current wind speed in m/s (hover to see current wind gust speed)